map of KLV home
KLV - Airport
Location
City:  Karlovy Vary, Karlovy Vary, Czech Republic
Name:Karlovy Vary Airport
ICAO:LKKV
IATA:KLV

Details
Type:Airport (Aerodrome, Airfield)
Use:Public/Civil
Latitude:5012'11"N (50.202978)
Longitude:1254'54"E (12.914983)
Datum:WGS 1984
Elevation:1989 ft (606 m)
Variation:3.84E (WMM2015v2 magnetic declination)
0.16 annual change
Runways:1
Longest:7054 × 98 ft (2150 × 30 m), paved

Time
Time Zone:UTC+1 (DST+2)
Local Time:

Weather
METAR:LKKV 041400Z 22005KT 180V250 9999 SCT020 M00/M05 Q1027 R29/290195
TAF:LKKV 041100Z 0412/0518 VRB02KT CAVOK
TEMPO 0412/0416 9999 SCT025
BECMG 0417/0419 5000 BR NSC
TEMPO 0420/0508 2000 BR SCT002
BECMG 0508/0510 CAVOK

Related Locations
Nearby:
Farthest:CHT: 11810 mi / 19007 km
Waitangi [Tuuta], CIT, NZ

Find:

   beyond  
but within

Other Information
Maps:
NOTAMs:
Links:
Sources:

  
  • flag of Czech Republic
  • flag of Karlovy Vary
  • flag of Karlovy Vary
  

Sectional Chart

Flight Planning
at skyvector.com

Satellite Image

Google Maps Satellite view

 

Copyright © 2004-2019 Karl L. Swartz. All rights reserved.
The Great Circle Mapper name and logo are trademarks of the Great Circle Mapper.
All other trademarks mentioned herein belong to their respective owners.
Please see credits for attibutions and further copyright information.

  Follow gcmap on Facebook Follow gcmap on Twitter GCmap on LinkedIn

hCard Microformat

Geo Microformat